createdAt,value
2019-05-29T00:01:34.353Z,96591.80
2019-05-29T00:04:02.979Z,96594.82
2019-05-29T00:06:31.553Z,96597.19
2019-05-29T00:09:00.202Z,96600.70
2019-05-29T00:11:28.890Z,96607.41
2019-05-29T00:13:57.481Z,96605.39
2019-05-29T00:16:26.091Z,96612.84
2019-05-29T00:18:58.186Z,96599.74
2019-05-29T00:21:25.397Z,96597.45
2019-05-29T00:23:53.964Z,96595.41
2019-05-29T00:26:22.658Z,96599.18
2019-05-29T00:28:51.236Z,96604.57
2019-05-29T00:31:20.400Z,96594.92
2019-05-29T00:33:49.094Z,96602.27
2019-05-29T00:36:17.615Z,96602.97
2019-05-29T00:38:46.257Z,96602.52
2019-05-29T00:41:15.109Z,96603.71
2019-05-29T00:43:43.914Z,96611.70
2019-05-29T00:46:13.424Z,96608.02
2019-05-29T00:48:42.167Z,96609.55
2019-05-29T00:51:11.000Z,96612.92
2019-05-29T00:53:39.686Z,96609.91
2019-05-29T00:56:08.538Z,96608.45
2019-05-29T00:58:37.194Z,96607.03
2019-05-29T01:01:05.831Z,96611.82
2019-05-29T01:03:36.094Z,96610.58
2019-05-29T01:06:04.745Z,96610.08
2019-05-29T01:08:33.388Z,96613.80
2019-05-29T01:11:01.928Z,96617.13
2019-05-29T01:13:30.581Z,96616.33
2019-05-29T01:15:59.240Z,96611.51
2019-05-29T01:18:28.167Z,96606.78
2019-05-29T01:20:56.721Z,96613.45
2019-05-29T01:23:25.374Z,96618.17
2019-05-29T01:25:54.047Z,96622.39
2019-05-29T01:28:23.143Z,96621.06
2019-05-29T01:30:51.798Z,96624.64
2019-05-29T01:33:23.331Z,96627.38
2019-05-29T01:35:51.224Z,96628.84
2019-05-29T01:38:19.906Z,96627.28
2019-05-29T01:40:48.545Z,96634.12
2019-05-29T01:43:17.515Z,96632.28
2019-05-29T01:45:46.223Z,96637.63
2019-05-29T01:48:15.408Z,96631.13
2019-05-29T01:50:44.084Z,96636.69
2019-05-29T01:53:13.310Z,96641.27
2019-05-29T01:55:41.939Z,96641.27
2019-05-29T01:58:10.607Z,96638.31
2019-05-29T02:00:39.291Z,96645.13
2019-05-29T02:03:07.934Z,96645.13
2019-05-29T02:05:36.604Z,96650.08
2019-05-29T02:08:05.297Z,96653.72
2019-05-29T02:10:33.941Z,96629.50
2019-05-29T02:13:03.154Z,96644.98
2019-05-29T02:15:33.989Z,96650.11
2019-05-29T02:18:02.281Z,96651.09
2019-05-29T02:20:30.964Z,96626.48
2019-05-29T02:22:59.684Z,96626.48
2019-05-29T02:25:28.545Z,96642.70
2019-05-29T02:27:57.122Z,96651.02
2019-05-29T02:30:28.518Z,96651.02
2019-05-29T02:32:56.222Z,96669.27
2019-05-29T02:35:26.976Z,96644.85
2019-05-29T02:37:55.290Z,96652.88
2019-05-29T02:40:25.933Z,96639.20
2019-05-29T02:42:54.656Z,96655.63
2019-05-29T02:45:26.147Z,96655.63
2019-05-29T02:47:53.638Z,96661.63
2019-05-29T02:50:23.916Z,96644.72
2019-05-29T02:52:52.744Z,96644.72
2019-05-29T02:55:22.718Z,96659.05
2019-05-29T02:57:51.434Z,96665.14
2019-05-29T03:00:23.444Z,96645.66
2019-05-29T03:02:52.550Z,96645.66
2019-05-29T03:05:22.000Z,96666.22
2019-05-29T03:07:50.672Z,96675.79
2019-05-29T03:10:20.128Z,96665.70
2019-05-29T03:12:48.865Z,96670.34
2019-05-29T03:15:18.224Z,96670.34
2019-05-29T03:17:46.938Z,96676.34
2019-05-29T03:20:15.572Z,96681.11
2019-05-29T03:22:44.248Z,96674.14
2019-05-29T03:25:12.905Z,96675.56
2019-05-29T03:27:41.476Z,96688.55
2019-05-29T03:30:11.840Z,96667.12
2019-05-29T03:32:47.364Z,96690.77
2019-05-29T03:35:12.309Z,96664.45
2019-05-29T03:37:40.920Z,96679.13
2019-05-29T03:40:09.679Z,96679.13
2019-05-29T03:42:38.960Z,96698.36
2019-05-29T03:45:08.734Z,96702.59
2019-05-29T03:47:37.502Z,96678.74
2019-05-29T03:50:07.754Z,96699.03
2019-05-29T03:52:36.571Z,96702.55
2019-05-29T03:55:08.238Z,96706.21
2019-05-29T03:57:38.159Z,96712.71
2019-05-29T04:00:08.845Z,96716.19
2019-05-29T04:02:38.412Z,96707.33
2019-05-29T04:05:08.635Z,96708.77
2019-05-29T04:07:38.136Z,96712.06
2019-05-29T04:10:07.523Z,96709.34
2019-05-29T04:12:38.086Z,96704.36
2019-05-29T04:15:06.990Z,96711.53
2019-05-29T04:17:37.872Z,96704.16
2019-05-29T04:20:07.337Z,96709.37
2019-05-29T04:22:39.563Z,96707.93
2019-05-29T04:25:08.303Z,96704.84
2019-05-29T04:27:39.887Z,96714.88
2019-05-29T04:30:09.021Z,96711.61
2019-05-29T04:32:38.663Z,96714.23
2019-05-29T04:35:07.500Z,96711.77
2019-05-29T04:37:36.972Z,96718.50
2019-05-29T04:40:07.450Z,96725.66
2019-05-29T04:42:37.647Z,96721.84
2019-05-29T04:45:08.340Z,96726.48
2019-05-29T04:47:37.386Z,96731.58
2019-05-29T04:50:07.678Z,96736.50
2019-05-29T04:52:37.861Z,96735.54
2019-05-29T04:55:06.950Z,96727.33
2019-05-29T04:57:35.617Z,96726.27
2019-05-29T05:00:07.771Z,96726.62
2019-05-29T05:02:37.274Z,96732.86
2019-05-29T05:05:07.586Z,96736.72
2019-05-29T05:07:37.352Z,96735.19
2019-05-29T05:10:07.216Z,96736.78
2019-05-29T05:12:37.830Z,96741.27
2019-05-29T05:15:07.496Z,96750.50
2019-05-29T05:17:36.226Z,96750.48
2019-05-29T05:20:05.848Z,96750.48
2019-05-29T05:22:34.498Z,96751.66
2019-05-29T05:25:03.663Z,96744.39
2019-05-29T05:27:32.310Z,96744.13
2019-05-29T05:30:00.973Z,96745.03
2019-05-29T05:32:30.570Z,96743.98
2019-05-29T05:34:59.237Z,96743.89
2019-05-29T05:37:27.886Z,96749.58
2019-05-29T05:39:56.576Z,96751.11
2019-05-29T05:42:25.232Z,96756.07
2019-05-29T05:44:53.885Z,96757.85
2019-05-29T05:47:22.586Z,96759.59
2019-05-29T05:49:51.258Z,96760.80
2019-05-29T05:52:19.989Z,96758.06
2019-05-29T05:54:48.767Z,96761.27
2019-05-29T05:57:17.466Z,96761.05
2019-05-29T05:59:46.101Z,96767.11
2019-05-29T06:02:20.012Z,96765.00
2019-05-29T06:04:48.815Z,96768.06
2019-05-29T06:07:17.487Z,96765.84
2019-05-29T06:09:46.056Z,96767.70
2019-05-29T06:12:14.759Z,96766.50
2019-05-29T06:14:43.401Z,96762.96
2019-05-29T06:17:12.129Z,96761.45
2019-05-29T06:19:41.170Z,96762.61
2019-05-29T06:22:09.947Z,96767.36
2019-05-29T06:24:38.887Z,96757.66
2019-05-29T06:27:07.568Z,96759.73
2019-05-29T06:29:37.132Z,96746.39
2019-05-29T06:32:05.812Z,96756.88
2019-05-29T06:34:35.680Z,96749.13
2019-05-29T06:37:04.350Z,96748.80
2019-05-29T06:39:33.497Z,96749.34
2019-05-29T06:42:02.170Z,96755.40
2019-05-29T06:44:30.824Z,96755.50
2019-05-29T06:46:59.469Z,96751.75
2019-05-29T06:49:28.162Z,96751.73
2019-05-29T06:51:56.806Z,96757.95
2019-05-29T06:54:25.482Z,96753.34
2019-05-29T06:56:54.178Z,96754.19
2019-05-29T06:59:22.829Z,96759.61
2019-05-29T07:01:51.606Z,96757.41
2019-05-29T07:04:20.260Z,96762.00
2019-05-29T07:06:49.101Z,96762.73
2019-05-29T07:09:17.858Z,96761.91
2019-05-29T07:11:47.541Z,96759.70
2019-05-29T07:14:16.334Z,96758.48
2019-05-29T07:16:54.875Z,96756.86
2019-05-29T07:19:29.364Z,96756.17
2019-05-29T07:21:52.185Z,96753.14
2019-05-29T07:24:20.901Z,96746.33
2019-05-29T07:26:49.591Z,96749.38
2019-05-29T07:29:18.308Z,96739.39
2019-05-29T07:31:47.330Z,96742.47
2019-05-29T07:34:16.034Z,96739.45
2019-05-29T07:36:45.988Z,96741.16
2019-05-29T07:39:14.765Z,96740.96
2019-05-29T07:41:43.711Z,96739.80
2019-05-29T07:44:12.532Z,96749.81
2019-05-29T07:46:42.261Z,96741.11
2019-05-29T07:49:11.039Z,96740.81
2019-05-29T07:51:40.503Z,96738.42
2019-05-29T07:54:09.343Z,96744.70
2019-05-29T07:56:38.363Z,96736.83
2019-05-29T07:59:07.134Z,96737.40
2019-05-29T08:01:35.795Z,96739.56
2019-05-29T08:04:04.433Z,96740.52
2019-05-29T08:06:33.115Z,96747.15
2019-05-29T08:09:01.789Z,96742.36
2019-05-29T08:11:30.471Z,96739.63
2019-05-29T08:13:59.151Z,96726.33
2019-05-29T08:16:27.870Z,96735.27
2019-05-29T08:18:56.540Z,96737.63
2019-05-29T08:21:25.294Z,96741.83
2019-05-29T08:23:53.914Z,96739.81
2019-05-29T08:26:22.653Z,96740.48
2019-05-29T08:28:51.432Z,96740.97
2019-05-29T08:31:20.085Z,96739.63
2019-05-29T08:33:49.023Z,96741.25
2019-05-29T08:36:17.720Z,96742.91
2019-05-29T08:38:47.408Z,96737.58
2019-05-29T08:41:16.111Z,96737.19
2019-05-29T08:43:45.403Z,96743.25
2019-05-29T08:46:15.226Z,96737.66
2019-05-29T08:48:43.904Z,96739.50
2019-05-29T08:51:12.628Z,96733.80
2019-05-29T08:53:42.544Z,96737.62
2019-05-29T08:56:11.569Z,96734.11
2019-05-29T08:58:42.786Z,96732.09
2019-05-29T09:01:11.702Z,96733.48
2019-05-29T09:03:40.391Z,96743.25
2019-05-29T09:06:11.519Z,96735.80
2019-05-29T09:08:39.483Z,96729.76
2019-05-29T09:11:08.139Z,96732.75
2019-05-29T09:13:36.842Z,96727.49
2019-05-29T09:16:05.489Z,96723.81
2019-05-29T09:18:34.249Z,96723.14
2019-05-29T09:21:04.248Z,96726.94
2019-05-29T09:23:33.246Z,96722.28
2019-05-29T09:26:14.285Z,96727.11
2019-05-29T09:28:33.225Z,96721.33
2019-05-29T09:31:01.808Z,96715.83
2019-05-29T09:33:30.495Z,96733.03
2019-05-29T09:35:59.334Z,96715.86
2019-05-29T09:38:28.013Z,96727.83
2019-05-29T09:40:56.694Z,96720.42
2019-05-29T09:43:29.995Z,96726.27
2019-05-29T09:45:55.878Z,96722.74
2019-05-29T09:48:27.470Z,96719.06
2019-05-29T09:50:55.044Z,96727.44
2019-05-29T09:53:23.796Z,96723.90
2019-05-29T09:55:54.171Z,96725.91
2019-05-29T09:58:22.993Z,96724.84
2019-05-29T10:01:09.558Z,96726.01
2019-05-29T10:03:25.019Z,96730.59
2019-05-29T10:05:57.286Z,96722.09
2019-05-29T10:08:26.243Z,96714.05
2019-05-29T10:11:02.669Z,96717.72
2019-05-29T10:13:25.615Z,96714.34
2019-05-29T10:15:55.951Z,96711.45
2019-05-29T10:18:31.904Z,96702.70
2019-05-29T10:20:56.503Z,96707.52
2019-05-29T10:23:25.779Z,96704.08
2019-05-29T10:25:56.406Z,96711.59
2019-05-29T10:28:48.343Z,96718.25
2019-05-29T10:31:03.106Z,96712.84
2019-05-29T10:33:28.990Z,96704.00
2019-05-29T10:38:48.652Z,96710.83
2019-05-29T10:41:20.357Z,96709.03
2019-05-29T10:43:54.194Z,96719.69
2019-05-29T10:46:22.891Z,96710.52
2019-05-29T10:48:54.205Z,96718.13
2019-05-29T10:51:22.105Z,96715.05
2019-05-29T10:53:53.098Z,96721.05
2019-05-29T10:56:21.646Z,96713.05
2019-05-29T10:58:56.203Z,96709.91
2019-05-29T11:01:20.878Z,96707.33
2019-05-29T11:03:52.149Z,96709.66
2019-05-29T11:06:20.687Z,96717.69
2019-05-29T11:08:49.996Z,96709.45
2019-05-29T11:11:18.827Z,96700.11
2019-05-29T11:13:48.645Z,96699.80
2019-05-29T11:16:17.393Z,96702.13
2019-05-29T11:18:47.371Z,96700.75
2019-05-29T11:21:16.464Z,96698.91
2019-05-29T11:23:45.113Z,96703.52
2019-05-29T11:26:13.797Z,96703.19
2019-05-29T11:28:42.505Z,96698.64
2019-05-29T11:31:11.241Z,96706.31
2019-05-29T11:33:40.101Z,96705.33
2019-05-29T11:36:12.887Z,96710.52
2019-05-29T11:38:39.270Z,96706.19
2019-05-29T11:41:25.146Z,96705.05
2019-05-29T11:43:38.765Z,96700.48
2019-05-29T11:46:07.450Z,96702.49
2019-05-29T11:48:36.127Z,96706.81
2019-05-29T11:51:04.816Z,96698.44
2019-05-29T11:53:33.510Z,96694.47
2019-05-29T11:56:02.230Z,96699.00
2019-05-29T11:58:31.871Z,96695.91
2019-05-29T12:01:01.282Z,96698.64
2019-05-29T12:03:29.990Z,96692.12
2019-05-29T12:05:59.420Z,96697.97
2019-05-29T12:08:30.828Z,96693.64
2019-05-29T12:10:59.535Z,96696.94
2019-05-29T12:13:28.352Z,96696.72
2019-05-29T12:15:57.716Z,96696.31
2019-05-29T12:18:26.449Z,96690.42
2019-05-29T12:20:56.246Z,96693.56
2019-05-29T12:23:27.041Z,96696.31
2019-05-29T12:26:16.666Z,96693.64
2019-05-29T12:28:25.708Z,96693.13
2019-05-29T12:30:55.178Z,96689.73
2019-05-29T12:33:23.964Z,96687.72
2019-05-29T12:36:01.287Z,96684.31
2019-05-29T12:38:29.922Z,96683.18
2019-05-29T12:40:59.821Z,96682.73
2019-05-29T12:43:28.556Z,96675.52
2019-05-29T12:45:57.802Z,96682.73
2019-05-29T12:48:26.559Z,96680.23
2019-05-29T12:50:56.068Z,96684.66
2019-05-29T12:53:30.112Z,96680.38
2019-05-29T12:55:56.102Z,96680.62
2019-05-29T12:58:24.866Z,96672.83
2019-05-29T13:00:54.482Z,96667.52
2019-05-29T13:03:23.255Z,96674.04
2019-05-29T13:05:52.048Z,96670.64
2019-05-29T13:08:20.713Z,96664.97
2019-05-29T13:10:49.414Z,96673.16
2019-05-29T13:13:18.299Z,96671.81
2019-05-29T13:15:46.945Z,96679.63
2019-05-29T13:18:15.577Z,96673.48
2019-05-29T13:20:44.350Z,96672.09
2019-05-29T13:23:13.154Z,96668.55
2019-05-29T13:25:41.861Z,96669.41
2019-05-29T13:28:10.534Z,96664.03
2019-05-29T13:30:39.280Z,96661.80
2019-05-29T13:33:09.038Z,96667.30
2019-05-29T13:35:37.882Z,96665.28
2019-05-29T13:38:07.368Z,96662.48
2019-05-29T13:40:36.267Z,96665.13
2019-05-29T13:43:13.968Z,96662.37
2019-05-29T13:45:35.683Z,96665.95
2019-05-29T13:48:05.428Z,96668.11
2019-05-29T13:50:34.213Z,96660.46
2019-05-29T13:53:03.542Z,96662.63
2019-05-29T13:55:32.263Z,96666.41
2019-05-29T13:58:01.668Z,96656.55
2019-05-29T14:00:34.465Z,96654.86
2019-05-29T14:03:02.469Z,96657.78
2019-05-29T14:05:31.420Z,96665.25
2019-05-29T14:08:00.611Z,96665.59
2019-05-29T14:10:29.314Z,96660.20
2019-05-29T14:12:58.924Z,96665.70
2019-05-29T14:15:27.674Z,96664.02
2019-05-29T14:17:56.331Z,96668.34
2019-05-29T14:20:26.191Z,96666.56
2019-05-29T14:22:54.941Z,96666.22
2019-05-29T14:25:23.571Z,96675.14
2019-05-29T14:27:52.288Z,96675.59
2019-05-29T14:30:20.937Z,96677.38
2019-05-29T14:32:49.643Z,96679.86
2019-05-29T14:35:18.458Z,96678.72
2019-05-29T14:37:47.120Z,96673.02
2019-05-29T14:40:17.019Z,96675.98
2019-05-29T14:42:45.756Z,96674.80
2019-05-29T14:45:15.017Z,96680.59
2019-05-29T14:47:43.680Z,96683.85
2019-05-29T14:50:13.367Z,96682.47
2019-05-29T14:52:42.168Z,96679.95
2019-05-29T14:55:17.418Z,96684.25
2019-05-29T14:57:41.530Z,96685.61
2019-05-29T15:00:23.141Z,96681.42
2019-05-29T15:02:42.859Z,96671.26
2019-05-29T15:05:12.368Z,96670.91
2019-05-29T15:07:41.996Z,96674.28
2019-05-29T15:10:24.006Z,96670.56
2019-05-29T15:12:41.665Z,96675.75
2019-05-29T15:15:11.895Z,96677.75
2019-05-29T15:17:41.289Z,96676.16
2019-05-29T15:20:12.602Z,96672.63
2019-05-29T15:22:40.833Z,96678.83
2019-05-29T15:25:18.113Z,96672.30
2019-05-29T15:27:40.413Z,96675.14
2019-05-29T15:30:11.362Z,96671.30
2019-05-29T15:32:40.788Z,96673.96
2019-05-29T15:35:14.447Z,96682.48
2019-05-29T15:37:41.242Z,96689.31
2019-05-29T15:40:11.020Z,96692.87
2019-05-29T15:42:39.821Z,96693.20
2019-05-29T15:45:10.056Z,96692.20
2019-05-29T15:47:38.719Z,96690.34
2019-05-29T15:50:13.519Z,96687.78
2019-05-29T15:52:42.673Z,96683.41
2019-05-29T15:55:27.472Z,96693.48
2019-05-29T15:57:42.124Z,96694.66
2019-05-29T16:00:13.592Z,96699.19
2019-05-29T16:02:42.434Z,96696.83
2019-05-29T16:05:13.138Z,96704.85
2019-05-29T16:07:41.913Z,96704.21
2019-05-29T16:10:14.799Z,96714.19
2019-05-29T16:12:43.019Z,96711.19
2019-05-29T16:15:13.269Z,96717.39
2019-05-29T16:17:42.048Z,96720.41
2019-05-29T16:20:12.328Z,96725.45
2019-05-29T16:22:42.041Z,96725.27
2019-05-29T16:25:11.183Z,96726.76
2019-05-29T16:27:39.972Z,96730.93
2019-05-29T16:30:09.521Z,96730.26
2019-05-29T16:32:38.297Z,96728.30
2019-05-29T16:35:07.495Z,96730.63
2019-05-29T16:37:36.128Z,96728.95
2019-05-29T16:40:09.681Z,96731.97
2019-05-29T16:42:38.585Z,96726.46
2019-05-29T16:45:09.677Z,96723.79
2019-05-29T16:47:38.514Z,96728.11
2019-05-29T16:50:12.964Z,96733.30
2019-05-29T16:52:41.773Z,96736.63
2019-05-29T16:55:10.999Z,96731.13
2019-05-29T16:57:39.747Z,96743.48
2019-05-29T17:00:09.715Z,96738.30
2019-05-29T17:02:39.092Z,96736.80
2019-05-29T17:05:08.179Z,96740.97
2019-05-29T17:07:36.942Z,96743.64
2019-05-29T17:10:10.355Z,96745.00
2019-05-29T17:12:39.137Z,96748.61
2019-05-29T17:15:12.764Z,96751.15
2019-05-29T17:17:41.508Z,96750.94
2019-05-29T17:20:10.857Z,96748.54
2019-05-29T17:22:39.541Z,96760.70
2019-05-29T17:25:08.583Z,96763.41
2019-05-29T17:27:37.277Z,96758.09
2019-05-29T17:30:08.015Z,96776.58
2019-05-29T17:32:36.668Z,96780.70
2019-05-29T17:35:09.280Z,96772.05
2019-05-29T17:37:38.176Z,96774.56
2019-05-29T17:40:07.753Z,96780.80
2019-05-29T17:42:36.590Z,96781.09
2019-05-29T17:45:12.718Z,96775.61
2019-05-29T17:47:41.949Z,96781.91
2019-05-29T17:50:10.627Z,96784.16
2019-05-29T17:52:39.256Z,96788.94
2019-05-29T17:55:08.696Z,96788.52
2019-05-29T17:57:37.437Z,96784.80
2019-05-29T18:00:13.415Z,96791.16
2019-05-29T18:02:51.445Z,96793.67
2019-05-29T18:05:14.307Z,96788.19
2019-05-29T18:07:43.147Z,96791.10
2019-05-29T18:10:12.528Z,96794.83
2019-05-29T18:12:41.353Z,96797.02
2019-05-29T18:15:10.838Z,96792.97
2019-05-29T18:17:39.498Z,96801.63
2019-05-29T18:20:09.754Z,96803.02
2019-05-29T18:22:39.131Z,96811.90
2019-05-29T18:25:08.589Z,96815.70
2019-05-29T18:27:37.232Z,96809.95
2019-05-29T18:30:09.695Z,96815.76
2019-05-29T18:32:52.377Z,96823.27
2019-05-29T18:35:21.066Z,96824.86
2019-05-29T18:37:49.723Z,96826.19
2019-05-29T18:40:20.240Z,96827.95
2019-05-29T18:42:49.007Z,96828.16
2019-05-29T18:45:20.987Z,96829.39
2019-05-29T18:47:48.465Z,96838.14
2019-05-29T18:50:17.366Z,96839.16
2019-05-29T18:52:45.956Z,96845.31
2019-05-29T18:55:15.306Z,96848.53
2019-05-29T18:57:44.603Z,96857.68
2019-05-29T19:00:14.032Z,96867.27
2019-05-29T19:02:47.638Z,96873.08
2019-05-29T19:05:16.931Z,96876.05
2019-05-29T19:07:45.667Z,96888.52
2019-05-29T19:10:14.521Z,96891.89
2019-05-29T19:12:43.359Z,96898.66
2019-05-29T19:15:12.630Z,96894.33
2019-05-29T19:17:41.303Z,96901.99
2019-05-29T19:20:10.503Z,96906.59
2019-05-29T19:22:39.162Z,96903.55
2019-05-29T19:25:08.201Z,96909.62
2019-05-29T19:27:41.318Z,96915.06
2019-05-29T19:30:10.953Z,96924.11
2019-05-29T19:32:39.607Z,96925.67
2019-05-29T19:35:08.934Z,96921.82
2019-05-29T19:37:37.570Z,96920.95
2019-05-29T19:40:07.248Z,96923.52
2019-05-29T19:42:35.961Z,96921.34
2019-05-29T19:45:07.528Z,96923.20
2019-05-29T19:47:36.171Z,96929.01
2019-05-29T19:50:10.220Z,96932.31
2019-05-29T19:52:37.047Z,96935.80
2019-05-29T19:55:09.186Z,96938.95
2019-05-29T19:57:52.492Z,96941.04
2019-05-29T20:00:10.641Z,96945.84
2019-05-29T20:02:39.986Z,96945.66
2019-05-29T20:05:08.899Z,96945.47
2019-05-29T20:07:37.766Z,96952.46
2019-05-29T20:10:09.125Z,96948.86
2019-05-29T20:12:38.271Z,96951.63
2019-05-29T20:15:07.535Z,96955.23
2019-05-29T20:17:36.324Z,96954.88
2019-05-29T20:20:06.778Z,96956.86
2019-05-29T20:22:36.777Z,96960.97
2019-05-29T20:25:07.633Z,96962.18
2019-05-29T20:27:36.494Z,96963.59
2019-05-29T20:30:06.218Z,96969.47
2019-05-29T20:32:34.925Z,96969.14
2019-05-29T20:35:04.571Z,96974.31
2019-05-29T20:37:34.064Z,96971.58
2019-05-29T20:40:02.825Z,96981.69
2019-05-29T20:42:32.139Z,96979.50
2019-05-29T20:45:00.899Z,96974.83
2019-05-29T20:47:29.597Z,96985.18
2019-05-29T20:49:58.328Z,96985.73
2019-05-29T20:52:27.129Z,96986.14
2019-05-29T20:54:58.717Z,96987.19
2019-05-29T20:57:26.512Z,96984.80
2019-05-29T20:59:55.206Z,96989.27
2019-05-29T21:02:23.980Z,96996.09
2019-05-29T21:04:52.652Z,96991.41
2019-05-29T21:07:21.301Z,96997.78
2019-05-29T21:09:50.055Z,96997.70
2019-05-29T21:12:18.703Z,96990.95
2019-05-29T21:14:47.355Z,96991.20
2019-05-29T21:17:16.028Z,96997.78
2019-05-29T21:19:44.854Z,96997.83
2019-05-29T21:22:13.553Z,97000.33
2019-05-29T21:24:49.421Z,97009.35
2019-05-29T21:27:12.699Z,97005.97
2019-05-29T21:29:41.350Z,97004.42
2019-05-29T21:32:10.057Z,97006.48
2019-05-29T21:34:39.764Z,97010.09
2019-05-29T21:37:08.464Z,97013.83
2019-05-29T21:39:38.322Z,97006.70
2019-05-29T21:42:07.222Z,97007.15
2019-05-29T21:44:36.624Z,97009.31
2019-05-29T21:47:05.357Z,97009.89
2019-05-29T21:49:33.989Z,97012.69
2019-05-29T21:52:02.704Z,97016.32
2019-05-29T21:54:31.429Z,97014.88
2019-05-29T21:57:00.083Z,97017.92
2019-05-29T21:59:28.736Z,97020.30
2019-05-29T22:01:57.424Z,97018.87
2019-05-29T22:04:26.085Z,97018.14
2019-05-29T22:06:54.726Z,97018.28
2019-05-29T22:09:23.477Z,97018.61
2019-05-29T22:11:52.274Z,97021.50
2019-05-29T22:14:20.944Z,97025.22
2019-05-29T22:16:50.884Z,97024.12
2019-05-29T22:19:19.533Z,97022.55
2019-05-29T22:21:48.127Z,97035.21
2019-05-29T22:24:16.902Z,97036.66
2019-05-29T22:26:45.631Z,97028.84
2019-05-29T22:29:18.172Z,97034.00
2019-05-29T22:31:44.775Z,97034.26
2019-05-29T22:34:13.424Z,97042.11
2019-05-29T22:36:42.074Z,97042.79
2019-05-29T22:39:10.794Z,97048.84
2019-05-29T22:41:39.449Z,97045.20
2019-05-29T22:44:08.160Z,97048.58
2019-05-29T22:46:36.867Z,97053.61
2019-05-29T22:49:05.507Z,97049.27
2019-05-29T22:51:34.189Z,97053.63
2019-05-29T22:54:03.020Z,97055.08
2019-05-29T22:56:31.672Z,97056.28
2019-05-29T22:59:00.339Z,97058.48
2019-05-29T23:01:29.048Z,97062.32
2019-05-29T23:03:58.246Z,97057.84
2019-05-29T23:06:26.924Z,97057.52
2019-05-29T23:08:56.262Z,97068.12
2019-05-29T23:11:24.985Z,97066.76
2019-05-29T23:13:54.237Z,97071.72
2019-05-29T23:16:22.931Z,97071.47
2019-05-29T23:18:52.405Z,97071.95
2019-05-29T23:21:21.126Z,97069.19
2019-05-29T23:23:49.780Z,97073.05
2019-05-29T23:26:18.434Z,97072.91
2019-05-29T23:28:47.210Z,97071.57
2019-05-29T23:31:15.854Z,97079.06
2019-05-29T23:33:44.510Z,97077.69
2019-05-29T23:36:13.201Z,97078.44
2019-05-29T23:38:41.878Z,97077.14
2019-05-29T23:41:10.525Z,97076.66
2019-05-29T23:43:39.383Z,97081.48
2019-05-29T23:46:08.043Z,97081.70
2019-05-29T23:48:36.687Z,97078.78
2019-05-29T23:51:05.405Z,97085.42
2019-05-29T23:53:34.047Z,97081.20
2019-05-29T23:56:03.890Z,97085.66
2019-05-29T23:58:32.606Z,97090.45
